CYOD

CFB Cold Lake Airport

Cold Lake, Alberta, Canada
METAR CYOD 222100Z 28012G21KT 15SM BKN024 OVC035 07/02 A3001 RMK SC6SC2 SLP182
Observed Flight Rules
Apr-22 @ 21:00 UTC (57 minutes ago) Marginal Visual Flight Rules
Wind Visibility Clouds
280° at 12 knots
 Gusting to 21 knots
15 miles
  • Broken at 2,400' AGL
  • Overcast at 3,500' AGL
Temperatures Readings
Current 7°C / 45°F
Dewpoint 2°C / 36°F
Humidity 71%
Altimeter 30.01" Hg
Pressure 1018.2 hPa
Elevation 544
METAR CYOD 222100Z 28012G21KT 15SM BKN024 OVC035 07/02 A3001 RMK SC6SC2 SLP182
Observed Flight Rules
Apr-22 @ 21:00 UTC
(57 minutes ago)
MVFR
Wind Visibility
280° at 12 knots
 Gusting to 21 knots
15 miles
Clouds
  • Broken at 2,400' AGL
  • Overcast at 3,500' AGL
Temperature Dewpoint
7°C / 45°F 2°C / 36°F
Humidity Altimeter Pressure
71% 30.01" Hg 1018.2 hPa